KAQX

Allendale County Airport

Allendale, South Carolina, USA
METAR KAQX 140035Z AUTO 00000KT 10SM BKN036 BKN044 OVC070 13/08 A3021 RMK AO2 TSNO
Observed Flight Rules
Dec-14 @ 00:35 UTC (9 minutes ago) Visual Flight Rules
Visibility Clouds
10 miles
  • Broken at 3,600' AGL
  • Broken at 4,400' AGL
  • Overcast at 7,000' AGL
Temperatures Readings
Current 13°C / 55°F
Dewpoint 8°C / 46°F
Humidity 72%
Altimeter 30.21" Hg
Pressure 1023 hPa
Elevation 49
METAR KAQX 140035Z AUTO 00000KT 10SM BKN036 BKN044 OVC070 13/08 A3021 RMK AO2 TSNO
Observed Flight Rules
Dec-14 @ 00:35 UTC
(9 minutes ago)
VFR
Clouds
  • Broken at 3,600' AGL
  • Broken at 4,400' AGL
  • Overcast at 7,000' AGL
Temperature Dewpoint
13°C / 55°F 8°C / 46°F
Humidity Altimeter Pressure
72% 30.21" Hg 1023 hPa